sensor_id;sensor_type;location;lat;lon;timestamp;temperature;humidity
24468;DHT22;12634;50.852;5.676;2023-07-02T00:02:23;15.70;99.90
24468;DHT22;12634;50.852;5.676;2023-07-02T00:04:51;15.80;99.90
24468;DHT22;12634;50.852;5.676;2023-07-02T00:07:18;15.70;99.90
24468;DHT22;12634;50.852;5.676;2023-07-02T00:09:45;15.70;99.90
24468;DHT22;12634;50.852;5.676;2023-07-02T00:12:12;15.70;99.90
24468;DHT22;12634;50.852;5.676;2023-07-02T00:14:41;15.70;99.90
24468;DHT22;12634;50.852;5.676;2023-07-02T00:17:08;15.60;99.90
24468;DHT22;12634;50.852;5.676;2023-07-02T00:19:38;15.70;99.90
24468;DHT22;12634;50.852;5.676;2023-07-02T00:22:07;15.60;99.90
24468;DHT22;12634;50.852;5.676;2023-07-02T00:24:34;15.60;99.90
24468;DHT22;12634;50.852;5.676;2023-07-02T00:27:02;15.50;99.90
24468;DHT22;12634;50.852;5.676;2023-07-02T00:29:29;15.60;99.90
24468;DHT22;12634;50.852;5.676;2023-07-02T00:31:58;15.50;99.90
24468;DHT22;12634;50.852;5.676;2023-07-02T00:34:25;15.50;99.90
24468;DHT22;12634;50.852;5.676;2023-07-02T00:36:52;15.40;99.90
24468;DHT22;12634;50.852;5.676;2023-07-02T00:39:19;15.40;99.90
24468;DHT22;12634;50.852;5.676;2023-07-02T00:41:46;15.40;99.90
24468;DHT22;12634;50.852;5.676;2023-07-02T00:44:14;15.40;99.90
24468;DHT22;12634;50.852;5.676;2023-07-02T00:46:41;15.40;99.90
24468;DHT22;12634;50.852;5.676;2023-07-02T00:49:10;15.40;99.90
24468;DHT22;12634;50.852;5.676;2023-07-02T00:51:37;15.40;99.90
24468;DHT22;12634;50.852;5.676;2023-07-02T00:54:04;15.40;99.90
24468;DHT22;12634;50.852;5.676;2023-07-02T00:56:31;15.40;99.90
24468;DHT22;12634;50.852;5.676;2023-07-02T00:58:59;15.40;99.90
24468;DHT22;12634;50.852;5.676;2023-07-02T01:01:27;15.30;99.90
24468;DHT22;12634;50.852;5.676;2023-07-02T01:03:58;15.40;99.90
24468;DHT22;12634;50.852;5.676;2023-07-02T01:06:28;15.40;99.90
24468;DHT22;12634;50.852;5.676;2023-07-02T01:08:57;15.30;99.90
24468;DHT22;12634;50.852;5.676;2023-07-02T01:11:28;15.40;99.90
24468;DHT22;12634;50.852;5.676;2023-07-02T01:13:59;15.40;99.90
24468;DHT22;12634;50.852;5.676;2023-07-02T01:16:28;15.40;99.90
24468;DHT22;12634;50.852;5.676;2023-07-02T01:18:56;15.40;99.90
24468;DHT22;12634;50.852;5.676;2023-07-02T01:21:26;15.30;99.90
24468;DHT22;12634;50.852;5.676;2023-07-02T01:23:53;15.30;99.90
24468;DHT22;12634;50.852;5.676;2023-07-02T01:26:20;15.40;99.90
24468;DHT22;12634;50.852;5.676;2023-07-02T01:28:48;15.30;99.90
24468;DHT22;12634;50.852;5.676;2023-07-02T01:31:16;15.30;99.90
24468;DHT22;12634;50.852;5.676;2023-07-02T01:33:43;15.30;99.90
24468;DHT22;12634;50.852;5.676;2023-07-02T01:36:10;15.30;99.90
24468;DHT22;12634;50.852;5.676;2023-07-02T01:38:39;15.30;99.90
24468;DHT22;12634;50.852;5.676;2023-07-02T01:41:07;15.30;99.90
24468;DHT22;12634;50.852;5.676;2023-07-02T01:43:34;15.20;99.90
24468;DHT22;12634;50.852;5.676;2023-07-02T01:46:01;15.30;99.90
24468;DHT22;12634;50.852;5.676;2023-07-02T01:48:28;15.30;99.90
24468;DHT22;12634;50.852;5.676;2023-07-02T01:50:56;15.30;99.90
24468;DHT22;12634;50.852;5.676;2023-07-02T01:53:23;15.30;99.90
24468;DHT22;12634;50.852;5.676;2023-07-02T01:55:51;15.40;99.90
24468;DHT22;12634;50.852;5.676;2023-07-02T01:58:18;15.40;99.90
24468;DHT22;12634;50.852;5.676;2023-07-02T02:00:46;15.40;99.90
24468;DHT22;12634;50.852;5.676;2023-07-02T02:03:13;15.40;99.90
24468;DHT22;12634;50.852;5.676;2023-07-02T02:05:40;15.40;99.90
24468;DHT22;12634;50.852;5.676;2023-07-02T02:08:08;15.40;99.90
24468;DHT22;12634;50.852;5.676;2023-07-02T02:10:35;15.40;99.90
24468;DHT22;12634;50.852;5.676;2023-07-02T02:13:03;15.40;99.90
24468;DHT22;12634;50.852;5.676;2023-07-02T02:15:30;15.40;99.90
24468;DHT22;12634;50.852;5.676;2023-07-02T02:17:58;15.40;99.90
24468;DHT22;12634;50.852;5.676;2023-07-02T02:20:25;15.40;99.90
24468;DHT22;12634;50.852;5.676;2023-07-02T02:22:52;15.40;99.90
24468;DHT22;12634;50.852;5.676;2023-07-02T02:25:19;15.40;99.90
24468;DHT22;12634;50.852;5.676;2023-07-02T02:27:46;15.30;99.90
24468;DHT22;12634;50.852;5.676;2023-07-02T02:30:15;15.30;99.90
24468;DHT22;12634;50.852;5.676;2023-07-02T02:32:42;15.40;99.90
24468;DHT22;12634;50.852;5.676;2023-07-02T02:35:09;15.40;99.90
24468;DHT22;12634;50.852;5.676;2023-07-02T02:37:37;15.40;99.90
24468;DHT22;12634;50.852;5.676;2023-07-02T02:40:06;15.40;99.90
24468;DHT22;12634;50.852;5.676;2023-07-02T02:42:34;15.40;99.90
24468;DHT22;12634;50.852;5.676;2023-07-02T02:45:02;15.40;99.90
24468;DHT22;12634;50.852;5.676;2023-07-02T02:47:31;15.40;99.90
24468;DHT22;12634;50.852;5.676;2023-07-02T02:49:58;15.40;99.90
24468;DHT22;12634;50.852;5.676;2023-07-02T02:52:26;15.40;99.90
24468;DHT22;12634;50.852;5.676;2023-07-02T02:54:53;15.40;99.90
24468;DHT22;12634;50.852;5.676;2023-07-02T02:57:20;15.40;99.90
24468;DHT22;12634;50.852;5.676;2023-07-02T02:59:47;15.40;99.90
24468;DHT22;12634;50.852;5.676;2023-07-02T03:02:14;15.40;99.90
24468;DHT22;12634;50.852;5.676;2023-07-02T03:04:43;15.40;99.90
24468;DHT22;12634;50.852;5.676;2023-07-02T03:07:10;15.40;99.90
24468;DHT22;12634;50.852;5.676;2023-07-02T03:09:38;15.40;99.90
24468;DHT22;12634;50.852;5.676;2023-07-02T03:12:05;15.40;99.90
24468;DHT22;12634;50.852;5.676;2023-07-02T03:14:33;15.50;99.90
24468;DHT22;12634;50.852;5.676;2023-07-02T03:17:00;15.40;99.90
24468;DHT22;12634;50.852;5.676;2023-07-02T03:19:27;15.40;99.90
24468;DHT22;12634;50.852;5.676;2023-07-02T03:21:56;15.40;99.90
24468;DHT22;12634;50.852;5.676;2023-07-02T03:24:23;15.40;99.90
24468;DHT22;12634;50.852;5.676;2023-07-02T03:26:50;15.40;99.90
24468;DHT22;12634;50.852;5.676;2023-07-02T03:29:17;15.50;99.90
24468;DHT22;12634;50.852;5.676;2023-07-02T03:31:46;15.50;99.90
24468;DHT22;12634;50.852;5.676;2023-07-02T03:34:13;15.50;99.90
24468;DHT22;12634;50.852;5.676;2023-07-02T03:36:40;15.40;99.90
24468;DHT22;12634;50.852;5.676;2023-07-02T03:39:09;15.40;99.90
24468;DHT22;12634;50.852;5.676;2023-07-02T03:41:36;15.40;99.90
24468;DHT22;12634;50.852;5.676;2023-07-02T03:44:03;15.30;99.90
24468;DHT22;12634;50.852;5.676;2023-07-02T03:46:30;15.30;99.90
24468;DHT22;12634;50.852;5.676;2023-07-02T03:48:58;15.30;99.90
24468;DHT22;12634;50.852;5.676;2023-07-02T03:51:25;15.40;99.90
24468;DHT22;12634;50.852;5.676;2023-07-02T03:53:52;15.30;99.90
24468;DHT22;12634;50.852;5.676;2023-07-02T03:56:21;15.40;99.90
24468;DHT22;12634;50.852;5.676;2023-07-02T03:58:48;15.30;99.90
24468;DHT22;12634;50.852;5.676;2023-07-02T04:01:15;15.30;99.90
24468;DHT22;12634;50.852;5.676;2023-07-02T04:03:47;15.30;99.90
24468;DHT22;12634;50.852;5.676;2023-07-02T04:06:14;15.30;99.90
24468;DHT22;12634;50.852;5.676;2023-07-02T04:08:42;15.30;99.90
24468;DHT22;12634;50.852;5.676;2023-07-02T04:11:10;15.30;99.90
24468;DHT22;12634;50.852;5.676;2023-07-02T04:13:39;15.30;99.90
24468;DHT22;12634;50.852;5.676;2023-07-02T04:16:07;15.30;99.90
24468;DHT22;12634;50.852;5.676;2023-07-02T04:18:34;15.30;99.90
24468;DHT22;12634;50.852;5.676;2023-07-02T04:21:02;15.40;99.90
24468;DHT22;12634;50.852;5.676;2023-07-02T04:23:29;15.30;99.90
24468;DHT22;12634;50.852;5.676;2023-07-02T04:25:56;15.30;99.90
24468;DHT22;12634;50.852;5.676;2023-07-02T04:28:23;15.30;99.90
24468;DHT22;12634;50.852;5.676;2023-07-02T04:30:52;15.40;99.90
24468;DHT22;12634;50.852;5.676;2023-07-02T04:33:19;15.50;99.90
24468;DHT22;12634;50.852;5.676;2023-07-02T04:35:47;15.50;99.90
24468;DHT22;12634;50.852;5.676;2023-07-02T04:38:14;15.50;99.90
24468;DHT22;12634;50.852;5.676;2023-07-02T04:40:41;15.50;99.90
24468;DHT22;12634;50.852;5.676;2023-07-02T04:43:10;15.50;99.90
24468;DHT22;12634;50.852;5.676;2023-07-02T04:45:38;15.50;99.90
24468;DHT22;12634;50.852;5.676;2023-07-02T04:48:06;15.50;99.90
24468;DHT22;12634;50.852;5.676;2023-07-02T04:50:34;15.50;99.90
24468;DHT22;12634;50.852;5.676;2023-07-02T04:53:01;15.50;99.90
24468;DHT22;12634;50.852;5.676;2023-07-02T04:55:28;15.60;99.90
24468;DHT22;12634;50.852;5.676;2023-07-02T04:57:55;15.60;99.90
24468;DHT22;12634;50.852;5.676;2023-07-02T05:00:22;15.60;99.90
24468;DHT22;12634;50.852;5.676;2023-07-02T05:02:50;15.60;99.90
24468;DHT22;12634;50.852;5.676;2023-07-02T05:05:19;15.70;99.90
24468;DHT22;12634;50.852;5.676;2023-07-02T05:07:46;15.80;99.90
24468;DHT22;12634;50.852;5.676;2023-07-02T05:10:13;15.80;99.90
24468;DHT22;12634;50.852;5.676;2023-07-02T05:12:40;15.80;99.90
24468;DHT22;12634;50.852;5.676;2023-07-02T05:15:08;15.90;99.90
24468;DHT22;12634;50.852;5.676;2023-07-02T05:17:35;15.90;99.90
24468;DHT22;12634;50.852;5.676;2023-07-02T05:20:03;16.00;99.90
24468;DHT22;12634;50.852;5.676;2023-07-02T05:22:32;16.00;99.90
24468;DHT22;12634;50.852;5.676;2023-07-02T05:24:59;16.10;99.90
24468;DHT22;12634;50.852;5.676;2023-07-02T05:27:27;16.20;99.90
24468;DHT22;12634;50.852;5.676;2023-07-02T05:29:54;16.30;99.90
24468;DHT22;12634;50.852;5.676;2023-07-02T05:32:21;16.50;99.90
24468;DHT22;12634;50.852;5.676;2023-07-02T05:34:48;16.60;99.90
24468;DHT22;12634;50.852;5.676;2023-07-02T05:37:15;16.70;99.90
24468;DHT22;12634;50.852;5.676;2023-07-02T05:39:44;16.70;99.90
24468;DHT22;12634;50.852;5.676;2023-07-02T05:42:11;16.60;99.90
24468;DHT22;12634;50.852;5.676;2023-07-02T05:44:38;16.60;99.90
24468;DHT22;12634;50.852;5.676;2023-07-02T05:47:05;16.50;99.90
24468;DHT22;12634;50.852;5.676;2023-07-02T05:49:33;16.50;99.90
24468;DHT22;12634;50.852;5.676;2023-07-02T05:52:00;16.50;99.90
24468;DHT22;12634;50.852;5.676;2023-07-02T05:54:27;16.50;99.90
24468;DHT22;12634;50.852;5.676;2023-07-02T05:56:56;16.60;99.90
24468;DHT22;12634;50.852;5.676;2023-07-02T05:59:23;16.80;99.90
24468;DHT22;12634;50.852;5.676;2023-07-02T06:01:50;16.80;99.90
24468;DHT22;12634;50.852;5.676;2023-07-02T06:04:17;16.90;99.90
24468;DHT22;12634;50.852;5.676;2023-07-02T06:06:44;17.10;99.90
24468;DHT22;12634;50.852;5.676;2023-07-02T06:09:11;16.70;99.90
24468;DHT22;12634;50.852;5.676;2023-07-02T06:11:38;17.10;99.90
24468;DHT22;12634;50.852;5.676;2023-07-02T06:14:07;17.30;99.90
24468;DHT22;12634;50.852;5.676;2023-07-02T06:16:34;17.20;99.90
24468;DHT22;12634;50.852;5.676;2023-07-02T06:19:01;17.30;99.90
24468;DHT22;12634;50.852;5.676;2023-07-02T06:21:29;17.10;99.90
24468;DHT22;12634;50.852;5.676;2023-07-02T06:23:56;17.30;99.90
24468;DHT22;12634;50.852;5.676;2023-07-02T06:26:24;17.40;99.90
24468;DHT22;12634;50.852;5.676;2023-07-02T06:28:51;17.40;99.90
24468;DHT22;12634;50.852;5.676;2023-07-02T06:31:20;17.20;99.90
24468;DHT22;12634;50.852;5.676;2023-07-02T06:33:47;17.20;99.90
24468;DHT22;12634;50.852;5.676;2023-07-02T06:36:14;17.00;99.90
24468;DHT22;12634;50.852;5.676;2023-07-02T06:38:43;17.30;99.90
24468;DHT22;12634;50.852;5.676;2023-07-02T06:41:10;17.60;99.90
24468;DHT22;12634;50.852;5.676;2023-07-02T06:43:37;17.70;99.90
24468;DHT22;12634;50.852;5.676;2023-07-02T06:46:04;17.80;99.90
24468;DHT22;12634;50.852;5.676;2023-07-02T06:48:33;17.60;99.90
24468;DHT22;12634;50.852;5.676;2023-07-02T06:51:00;17.60;99.90
24468;DHT22;12634;50.852;5.676;2023-07-02T06:53:28;17.60;99.90
24468;DHT22;12634;50.852;5.676;2023-07-02T06:55:55;17.70;99.90
24468;DHT22;12634;50.852;5.676;2023-07-02T06:58:22;17.70;99.90
24468;DHT22;12634;50.852;5.676;2023-07-02T07:00:49;17.80;99.90
24468;DHT22;12634;50.852;5.676;2023-07-02T07:03:16;17.90;99.90
24468;DHT22;12634;50.852;5.676;2023-07-02T07:05:45;17.90;99.90
24468;DHT22;12634;50.852;5.676;2023-07-02T07:08:12;17.60;99.90
24468;DHT22;12634;50.852;5.676;2023-07-02T07:10:40;17.70;99.90
24468;DHT22;12634;50.852;5.676;2023-07-02T07:13:07;17.80;99.90
24468;DHT22;12634;50.852;5.676;2023-07-02T07:15:34;18.00;99.90
24468;DHT22;12634;50.852;5.676;2023-07-02T07:18:02;17.80;99.90
24468;DHT22;12634;50.852;5.676;2023-07-02T07:20:29;17.80;99.90
24468;DHT22;12634;50.852;5.676;2023-07-02T07:22:58;17.60;99.90
24468;DHT22;12634;50.852;5.676;2023-07-02T07:25:25;18.20;99.90
24468;DHT22;12634;50.852;5.676;2023-07-02T07:27:52;18.20;99.90
24468;DHT22;12634;50.852;5.676;2023-07-02T07:30:20;18.50;99.90
24468;DHT22;12634;50.852;5.676;2023-07-02T07:32:49;18.90;99.90
24468;DHT22;12634;50.852;5.676;2023-07-02T07:35:17;18.70;99.90
24468;DHT22;12634;50.852;5.676;2023-07-02T07:37:44;19.10;99.90
24468;DHT22;12634;50.852;5.676;2023-07-02T07:40:14;18.80;99.90
24468;DHT22;12634;50.852;5.676;2023-07-02T07:42:42;19.20;99.90
24468;DHT22;12634;50.852;5.676;2023-07-02T07:45:10;19.00;99.90
24468;DHT22;12634;50.852;5.676;2023-07-02T07:47:37;18.90;99.90
24468;DHT22;12634;50.852;5.676;2023-07-02T07:50:06;19.00;99.90
24468;DHT22;12634;50.852;5.676;2023-07-02T07:52:37;19.10;99.90
24468;DHT22;12634;50.852;5.676;2023-07-02T07:55:05;18.80;99.90
24468;DHT22;12634;50.852;5.676;2023-07-02T07:57:34;18.90;99.90
24468;DHT22;12634;50.852;5.676;2023-07-02T08:00:01;18.80;99.90
24468;DHT22;12634;50.852;5.676;2023-07-02T08:02:30;18.60;99.90
24468;DHT22;12634;50.852;5.676;2023-07-02T08:04:57;18.50;99.90
24468;DHT22;12634;50.852;5.676;2023-07-02T08:07:24;18.60;99.90
24468;DHT22;12634;50.852;5.676;2023-07-02T08:09:51;18.60;99.90
24468;DHT22;12634;50.852;5.676;2023-07-02T08:12:18;19.00;99.90
24468;DHT22;12634;50.852;5.676;2023-07-02T08:14:47;19.10;99.90
24468;DHT22;12634;50.852;5.676;2023-07-02T08:17:14;19.20;99.90
24468;DHT22;12634;50.852;5.676;2023-07-02T08:19:42;19.70;99.90
24468;DHT22;12634;50.852;5.676;2023-07-02T08:22:09;19.70;99.90
24468;DHT22;12634;50.852;5.676;2023-07-02T08:24:36;19.30;99.90
24468;DHT22;12634;50.852;5.676;2023-07-02T08:27:04;19.90;99.90
24468;DHT22;12634;50.852;5.676;2023-07-02T08:29:31;20.20;99.90
24468;DHT22;12634;50.852;5.676;2023-07-02T08:32:00;20.20;99.90
24468;DHT22;12634;50.852;5.676;2023-07-02T08:34:27;20.40;99.90
24468;DHT22;12634;50.852;5.676;2023-07-02T08:36:54;19.80;99.90
24468;DHT22;12634;50.852;5.676;2023-07-02T08:39:22;20.20;99.90
24468;DHT22;12634;50.852;5.676;2023-07-02T08:41:49;20.60;99.90
24468;DHT22;12634;50.852;5.676;2023-07-02T08:44:19;20.40;99.90
24468;DHT22;12634;50.852;5.676;2023-07-02T08:46:47;20.90;99.90
24468;DHT22;12634;50.852;5.676;2023-07-02T08:49:18;21.00;99.90
24468;DHT22;12634;50.852;5.676;2023-07-02T08:51:46;21.30;99.90
24468;DHT22;12634;50.852;5.676;2023-07-02T08:54:13;21.20;99.90
24468;DHT22;12634;50.852;5.676;2023-07-02T08:56:41;20.70;99.90
24468;DHT22;12634;50.852;5.676;2023-07-02T08:59:09;20.40;99.90
24468;DHT22;12634;50.852;5.676;2023-07-02T09:01:45;19.80;99.90
24468;DHT22;12634;50.852;5.676;2023-07-02T09:04:18;20.00;99.90
24468;DHT22;12634;50.852;5.676;2023-07-02T09:06:46;19.70;99.90
24468;DHT22;12634;50.852;5.676;2023-07-02T09:09:13;20.20;99.90
24468;DHT22;12634;50.852;5.676;2023-07-02T09:11:47;20.60;99.90
24468;DHT22;12634;50.852;5.676;2023-07-02T09:14:25;21.10;99.90
24468;DHT22;12634;50.852;5.676;2023-07-02T09:17:03;20.50;99.90
24468;DHT22;12634;50.852;5.676;2023-07-02T09:19:33;20.00;99.90
24468;DHT22;12634;50.852;5.676;2023-07-02T09:22:01;20.60;99.90
24468;DHT22;12634;50.852;5.676;2023-07-02T09:24:30;20.30;99.90
24468;DHT22;12634;50.852;5.676;2023-07-02T09:26:58;20.00;99.90
24468;DHT22;12634;50.852;5.676;2023-07-02T09:29:27;19.70;99.90
24468;DHT22;12634;50.852;5.676;2023-07-02T09:31:55;19.50;99.90
24468;DHT22;12634;50.852;5.676;2023-07-02T09:34:28;19.30;99.90
24468;DHT22;12634;50.852;5.676;2023-07-02T09:36:57;19.60;99.90
24468;DHT22;12634;50.852;5.676;2023-07-02T09:39:28;20.10;99.90
24468;DHT22;12634;50.852;5.676;2023-07-02T09:41:57;20.40;99.90
24468;DHT22;12634;50.852;5.676;2023-07-02T09:44:28;20.70;99.90
24468;DHT22;12634;50.852;5.676;2023-07-02T09:47:01;20.20;99.90
24468;DHT22;12634;50.852;5.676;2023-07-02T09:49:32;20.20;99.90
24468;DHT22;12634;50.852;5.676;2023-07-02T09:52:02;19.70;99.90
24468;DHT22;12634;50.852;5.676;2023-07-02T09:54:29;19.40;99.90
24468;DHT22;12634;50.852;5.676;2023-07-02T09:56:58;19.90;99.90
24468;DHT22;12634;50.852;5.676;2023-07-02T09:59:25;20.70;99.90
24468;DHT22;12634;50.852;5.676;2023-07-02T10:01:53;20.80;99.90
24468;DHT22;12634;50.852;5.676;2023-07-02T10:04:21;21.70;99.90
24468;DHT22;12634;50.852;5.676;2023-07-02T10:06:51;21.80;99.90
24468;DHT22;12634;50.852;5.676;2023-07-02T10:09:20;22.60;99.90
24468;DHT22;12634;50.852;5.676;2023-07-02T10:11:47;22.90;99.90
24468;DHT22;12634;50.852;5.676;2023-07-02T10:14:15;22.10;99.90
24468;DHT22;12634;50.852;5.676;2023-07-02T10:16:52;22.40;99.90
24468;DHT22;12634;50.852;5.676;2023-07-02T10:19:20;21.70;99.90
24468;DHT22;12634;50.852;5.676;2023-07-02T10:22:00;22.10;99.90
24468;DHT22;12634;50.852;5.676;2023-07-02T10:24:29;22.70;99.90
24468;DHT22;12634;50.852;5.676;2023-07-02T10:26:58;22.70;99.90
24468;DHT22;12634;50.852;5.676;2023-07-02T10:29:27;22.70;99.90
24468;DHT22;12634;50.852;5.676;2023-07-02T10:31:55;22.90;99.90
24468;DHT22;12634;50.852;5.676;2023-07-02T10:34:32;23.30;99.90
24468;DHT22;12634;50.852;5.676;2023-07-02T10:37:00;22.50;99.90
24468;DHT22;12634;50.852;5.676;2023-07-02T10:39:30;22.90;99.90
24468;DHT22;12634;50.852;5.676;2023-07-02T10:42:07;22.70;99.90
24468;DHT22;12634;50.852;5.676;2023-07-02T10:44:35;21.80;99.90
24468;DHT22;12634;50.852;5.676;2023-07-02T10:47:13;21.50;99.90
24468;DHT22;12634;50.852;5.676;2023-07-02T10:49:40;21.60;99.90
24468;DHT22;12634;50.852;5.676;2023-07-02T10:52:07;21.40;99.90
24468;DHT22;12634;50.852;5.676;2023-07-02T10:54:43;21.50;99.90
24468;DHT22;12634;50.852;5.676;2023-07-02T10:57:13;21.70;99.90
24468;DHT22;12634;50.852;5.676;2023-07-02T10:59:42;21.60;99.90
24468;DHT22;12634;50.852;5.676;2023-07-02T11:02:09;21.90;99.90
24468;DHT22;12634;50.852;5.676;2023-07-02T11:04:36;22.70;99.90
24468;DHT22;12634;50.852;5.676;2023-07-02T11:07:04;23.20;99.90
24468;DHT22;12634;50.852;5.676;2023-07-02T11:09:32;23.60;99.90
24468;DHT22;12634;50.852;5.676;2023-07-02T11:12:01;23.50;99.90
24468;DHT22;12634;50.852;5.676;2023-07-02T11:14:29;23.40;99.90
24468;DHT22;12634;50.852;5.676;2023-07-02T11:16:57;22.30;99.90
24468;DHT22;12634;50.852;5.676;2023-07-02T11:19:25;21.90;99.90
24468;DHT22;12634;50.852;5.676;2023-07-02T11:21:53;21.80;99.90
24468;DHT22;12634;50.852;5.676;2023-07-02T11:24:30;21.70;99.90
24468;DHT22;12634;50.852;5.676;2023-07-02T11:26:58;21.70;99.90
24468;DHT22;12634;50.852;5.676;2023-07-02T11:29:28;21.70;99.90
24468;DHT22;12634;50.852;5.676;2023-07-02T11:32:05;21.40;99.90
24468;DHT22;12634;50.852;5.676;2023-07-02T11:34:32;20.90;99.90
24468;DHT22;12634;50.852;5.676;2023-07-02T11:36:59;20.90;99.90
24468;DHT22;12634;50.852;5.676;2023-07-02T11:39:27;21.10;99.90
24468;DHT22;12634;50.852;5.676;2023-07-02T11:41:54;21.50;99.90
24468;DHT22;12634;50.852;5.676;2023-07-02T11:44:21;22.30;99.90
24468;DHT22;12634;50.852;5.676;2023-07-02T11:46:50;21.70;99.90
24468;DHT22;12634;50.852;5.676;2023-07-02T11:49:17;21.90;99.90
24468;DHT22;12634;50.852;5.676;2023-07-02T11:51:44;22.30;99.90
24468;DHT22;12634;50.852;5.676;2023-07-02T11:54:14;23.00;99.90
24468;DHT22;12634;50.852;5.676;2023-07-02T11:56:42;23.40;99.90
24468;DHT22;12634;50.852;5.676;2023-07-02T11:59:09;23.40;99.90
24468;DHT22;12634;50.852;5.676;2023-07-02T12:01:36;23.90;99.90
24468;DHT22;12634;50.852;5.676;2023-07-02T12:04:05;23.40;99.90
24468;DHT22;12634;50.852;5.676;2023-07-02T12:06:33;23.70;99.90
24468;DHT22;12634;50.852;5.676;2023-07-02T12:09:00;23.30;99.90
24468;DHT22;12634;50.852;5.676;2023-07-02T12:11:27;22.80;99.90
24468;DHT22;12634;50.852;5.676;2023-07-02T12:13:55;22.40;99.90
24468;DHT22;12634;50.852;5.676;2023-07-02T12:16:22;22.50;99.90
24468;DHT22;12634;50.852;5.676;2023-07-02T12:18:49;22.60;99.90
24468;DHT22;12634;50.852;5.676;2023-07-02T12:21:18;23.20;99.90
24468;DHT22;12634;50.852;5.676;2023-07-02T12:23:45;23.30;99.90
24468;DHT22;12634;50.852;5.676;2023-07-02T12:26:12;22.50;99.90
24468;DHT22;12634;50.852;5.676;2023-07-02T12:28:40;23.30;99.90
24468;DHT22;12634;50.852;5.676;2023-07-02T12:31:07;24.20;99.90
24468;DHT22;12634;50.852;5.676;2023-07-02T12:33:34;24.00;99.90
24468;DHT22;12634;50.852;5.676;2023-07-02T12:36:01;24.10;99.90
24468;DHT22;12634;50.852;5.676;2023-07-02T12:38:30;24.70;99.90
24468;DHT22;12634;50.852;5.676;2023-07-02T12:40:58;23.80;99.90
24468;DHT22;12634;50.852;5.676;2023-07-02T12:43:25;23.80;99.90
24468;DHT22;12634;50.852;5.676;2023-07-02T12:45:52;23.60;99.90
24468;DHT22;12634;50.852;5.676;2023-07-02T12:48:19;23.20;99.90
24468;DHT22;12634;50.852;5.676;2023-07-02T12:50:56;22.80;99.90
24468;DHT22;12634;50.852;5.676;2023-07-02T12:53:24;23.10;99.90
24468;DHT22;12634;50.852;5.676;2023-07-02T12:55:53;22.90;99.90
24468;DHT22;12634;50.852;5.676;2023-07-02T12:58:20;22.20;99.90
24468;DHT22;12634;50.852;5.676;2023-07-02T13:00:48;22.40;99.90
24468;DHT22;12634;50.852;5.676;2023-07-02T13:03:17;22.50;99.90
24468;DHT22;12634;50.852;5.676;2023-07-02T13:05:44;22.90;99.90
24468;DHT22;12634;50.852;5.676;2023-07-02T13:08:11;23.30;99.90
24468;DHT22;12634;50.852;5.676;2023-07-02T13:10:39;23.70;99.90
24468;DHT22;12634;50.852;5.676;2023-07-02T13:13:07;23.90;99.90
24468;DHT22;12634;50.852;5.676;2023-07-02T13:15:34;23.50;99.90
24468;DHT22;12634;50.852;5.676;2023-07-02T13:18:02;24.30;99.90
24468;DHT22;12634;50.852;5.676;2023-07-02T13:20:29;24.90;99.90
24468;DHT22;12634;50.852;5.676;2023-07-02T13:22:57;24.40;99.90
24468;DHT22;12634;50.852;5.676;2023-07-02T13:25:24;24.20;99.90
24468;DHT22;12634;50.852;5.676;2023-07-02T13:27:52;23.70;99.90
24468;DHT22;12634;50.852;5.676;2023-07-02T13:30:20;23.70;99.90
24468;DHT22;12634;50.852;5.676;2023-07-02T13:32:48;23.30;99.90
24468;DHT22;12634;50.852;5.676;2023-07-02T13:35:15;23.10;99.90
24468;DHT22;12634;50.852;5.676;2023-07-02T13:37:42;23.00;99.90
24468;DHT22;12634;50.852;5.676;2023-07-02T13:40:10;23.00;99.90
24468;DHT22;12634;50.852;5.676;2023-07-02T13:42:38;23.40;99.90
24468;DHT22;12634;50.852;5.676;2023-07-02T13:45:07;23.60;99.90
24468;DHT22;12634;50.852;5.676;2023-07-02T13:47:36;23.80;99.90
24468;DHT22;12634;50.852;5.676;2023-07-02T13:50:04;24.60;99.90
24468;DHT22;12634;50.852;5.676;2023-07-02T13:52:31;25.00;99.90
24468;DHT22;12634;50.852;5.676;2023-07-02T13:54:58;24.80;99.90
24468;DHT22;12634;50.852;5.676;2023-07-02T13:57:26;24.40;99.90
24468;DHT22;12634;50.852;5.676;2023-07-02T13:59:54;25.30;99.90
24468;DHT22;12634;50.852;5.676;2023-07-02T14:02:22;25.00;99.90
24468;DHT22;12634;50.852;5.676;2023-07-02T14:04:50;25.70;99.90
24468;DHT22;12634;50.852;5.676;2023-07-02T14:07:17;25.60;99.90
24468;DHT22;12634;50.852;5.676;2023-07-02T14:09:44;24.70;99.90
24468;DHT22;12634;50.852;5.676;2023-07-02T14:12:12;24.90;99.90
24468;DHT22;12634;50.852;5.676;2023-07-02T14:14:39;25.10;99.90
24468;DHT22;12634;50.852;5.676;2023-07-02T14:17:08;25.70;99.90
24468;DHT22;12634;50.852;5.676;2023-07-02T14:19:35;25.20;99.90
24468;DHT22;12634;50.852;5.676;2023-07-02T14:22:02;24.70;99.90
24468;DHT22;12634;50.852;5.676;2023-07-02T14:24:30;24.50;99.90
24468;DHT22;12634;50.852;5.676;2023-07-02T14:26:57;23.80;99.90
24468;DHT22;12634;50.852;5.676;2023-07-02T14:29:24;23.50;99.90
24468;DHT22;12634;50.852;5.676;2023-07-02T14:31:51;23.80;99.90
24468;DHT22;12634;50.852;5.676;2023-07-02T14:34:20;23.50;99.90
24468;DHT22;12634;50.852;5.676;2023-07-02T14:36:48;23.80;99.90
24468;DHT22;12634;50.852;5.676;2023-07-02T14:39:15;25.00;99.90
24468;DHT22;12634;50.852;5.676;2023-07-02T14:41:42;25.50;99.90
24468;DHT22;12634;50.852;5.676;2023-07-02T14:44:09;25.40;99.90
24468;DHT22;12634;50.852;5.676;2023-07-02T14:46:37;25.30;99.90
24468;DHT22;12634;50.852;5.676;2023-07-02T14:49:04;25.40;99.90
24468;DHT22;12634;50.852;5.676;2023-07-02T14:51:32;23.90;99.90
24468;DHT22;12634;50.852;5.676;2023-07-02T14:54:00;23.10;99.90
24468;DHT22;12634;50.852;5.676;2023-07-02T14:56:29;23.00;99.90
24468;DHT22;12634;50.852;5.676;2023-07-02T14:58:56;22.90;99.90
24468;DHT22;12634;50.852;5.676;2023-07-02T15:01:23;22.90;99.90
24468;DHT22;12634;50.852;5.676;2023-07-02T15:03:51;23.00;99.90
24468;DHT22;12634;50.852;5.676;2023-07-02T15:06:18;24.00;99.90
24468;DHT22;12634;50.852;5.676;2023-07-02T15:08:47;24.60;99.90
24468;DHT22;12634;50.852;5.676;2023-07-02T15:11:15;25.00;99.90
24468;DHT22;12634;50.852;5.676;2023-07-02T15:13:43;25.10;99.90
24468;DHT22;12634;50.852;5.676;2023-07-02T15:16:11;26.00;99.90
24468;DHT22;12634;50.852;5.676;2023-07-02T15:18:39;26.00;99.90
24468;DHT22;12634;50.852;5.676;2023-07-02T15:21:07;26.40;99.90
24468;DHT22;12634;50.852;5.676;2023-07-02T15:23:35;25.10;99.90
24468;DHT22;12634;50.852;5.676;2023-07-02T15:26:04;23.90;99.90
24468;DHT22;12634;50.852;5.676;2023-07-02T15:28:32;23.00;99.90
24468;DHT22;12634;50.852;5.676;2023-07-02T15:31:03;23.30;99.90
24468;DHT22;12634;50.852;5.676;2023-07-02T15:33:31;23.50;99.90
24468;DHT22;12634;50.852;5.676;2023-07-02T15:35:59;24.40;99.90